createdAt,value
2019-06-08T00:02:20.679Z,23.95
2019-06-08T00:05:01.119Z,24.43
2019-06-08T00:07:39.639Z,24.55
2019-06-08T00:10:22.775Z,23.50
2019-06-08T00:13:06.522Z,24.30
2019-06-08T00:15:46.208Z,19.75
2019-06-08T00:18:27.636Z,18.92
2019-06-08T00:21:06.945Z,18.73
2019-06-08T00:23:48.543Z,18.35
2019-06-08T00:26:28.947Z,17.27
2019-06-08T00:29:07.355Z,18.95
2019-06-08T00:31:48.063Z,19.40
2019-06-08T00:34:28.464Z,20.62
2019-06-08T00:37:09.089Z,19.67
2019-06-08T00:39:49.772Z,21.55
2019-06-08T00:42:30.131Z,21.00
2019-06-08T00:45:08.798Z,21.93
2019-06-08T00:47:50.189Z,24.50
2019-06-08T00:50:30.599Z,20.45
2019-06-08T00:53:10.195Z,22.10
2019-06-08T00:55:50.604Z,25.85
2019-06-08T00:58:32.208Z,23.30
2019-06-08T01:01:11.820Z,25.30
2019-06-08T01:03:53.027Z,26.42
2019-06-08T01:06:33.320Z,25.52
2019-06-08T01:09:13.948Z,27.45
2019-06-08T01:11:54.332Z,28.35
2019-06-08T01:14:35.436Z,29.15
2019-06-08T01:19:52.154Z,27.45
2019-06-08T01:22:32.361Z,28.42
2019-06-08T01:25:11.742Z,27.17
2019-06-08T01:27:52.273Z,28.65
2019-06-08T01:30:32.090Z,29.00
2019-06-08T01:33:11.382Z,28.87
2019-06-08T01:35:50.906Z,28.02
2019-06-08T01:38:31.283Z,32.63
2019-06-08T01:41:10.806Z,30.05
2019-06-08T01:43:52.090Z,35.63
2019-06-08T01:46:32.424Z,31.27
2019-06-08T01:49:13.271Z,33.73
2019-06-08T01:51:54.507Z,31.62
2019-06-08T01:54:34.833Z,31.30
2019-06-08T01:57:14.117Z,38.20
2019-06-08T01:59:53.773Z,33.20
2019-06-08T02:02:34.190Z,35.52
2019-06-08T02:05:14.631Z,38.38
2019-06-08T02:07:54.936Z,36.88
2019-06-08T02:10:35.168Z,43.08
2019-06-08T02:13:15.447Z,34.15
2019-06-08T02:15:56.558Z,39.18
2019-06-08T02:18:49.888Z,35.98
2019-06-08T02:21:19.113Z,34.45
2019-06-08T02:23:59.363Z,35.83
2019-06-08T02:26:39.789Z,36.70
2019-06-08T02:29:18.995Z,35.58
2019-06-08T02:32:03.086Z,45.30
2019-06-08T02:34:42.388Z,39.95
2019-06-08T02:37:20.955Z,40.33
2019-06-08T02:40:02.454Z,41.05
2019-06-08T02:42:42.726Z,37.10
2019-06-08T02:45:24.308Z,34.97
2019-06-08T02:48:05.518Z,35.23
2019-06-08T02:51:03.119Z,33.23
2019-06-08T02:53:46.725Z,31.17
2019-06-08T02:56:29.724Z,29.45
2019-06-08T02:59:08.527Z,28.87
2019-06-08T03:01:49.583Z,23.67
2019-06-08T03:04:34.455Z,29.25
2019-06-08T03:07:15.265Z,28.60
2019-06-08T03:10:00.650Z,29.05
2019-06-08T03:12:43.459Z,29.15
2019-06-08T03:15:26.369Z,27.32
2019-06-08T03:18:07.689Z,22.27
2019-06-08T03:20:46.909Z,19.77
2019-06-08T03:23:28.676Z,21.02
2019-06-08T03:26:09.978Z,24.57
2019-06-08T03:28:51.085Z,23.07
2019-06-08T03:31:34.416Z,24.77
2019-06-08T03:34:12.621Z,21.45
2019-06-08T03:36:56.632Z,22.62
2019-06-08T03:39:38.950Z,21.52
2019-06-08T03:42:20.511Z,20.32
2019-06-08T03:45:00.017Z,19.05
2019-06-08T03:47:41.483Z,17.48
2019-06-08T03:50:22.738Z,18.55
2019-06-08T03:53:03.031Z,17.92
2019-06-08T03:55:46.646Z,20.48
2019-06-08T03:58:26.242Z,19.02
2019-06-08T04:01:07.052Z,18.67
2019-06-08T04:03:47.964Z,20.37
2019-06-08T04:06:29.153Z,21.57
2019-06-08T04:11:47.063Z,20.17
2019-06-08T04:14:37.712Z,21.42
2019-06-08T04:17:17.181Z,19.82
2019-06-08T04:20:10.322Z,19.48
2019-06-08T04:22:44.438Z,19.35
2019-06-08T04:25:24.887Z,21.35
2019-06-08T04:28:04.896Z,22.02
2019-06-08T04:30:46.827Z,22.80
2019-06-08T04:33:27.904Z,24.45
2019-06-08T04:36:07.209Z,26.52
2019-06-08T04:38:47.831Z,21.77
2019-06-08T04:41:28.822Z,21.95
2019-06-08T04:44:08.250Z,24.92
2019-06-08T04:46:49.431Z,26.00
2019-06-08T04:49:30.132Z,24.80
2019-06-08T04:52:09.440Z,23.65
2019-06-08T04:54:51.345Z,20.43
2019-06-08T04:57:30.949Z,23.18
2019-06-08T05:00:12.698Z,16.90
2019-06-08T05:02:52.960Z,18.77
2019-06-08T05:05:34.060Z,19.32
2019-06-08T05:08:12.676Z,21.65
2019-06-08T05:10:54.072Z,22.48
2019-06-08T05:13:40.854Z,20.48
2019-06-08T05:16:20.832Z,19.23
2019-06-08T05:19:01.889Z,18.15
2019-06-08T05:21:43.489Z,18.52
2019-06-08T05:24:22.720Z,18.98
2019-06-08T05:27:05.505Z,20.00
2019-06-08T05:29:47.259Z,19.95
2019-06-08T05:32:27.412Z,18.70
2019-06-08T05:35:07.716Z,18.10
2019-06-08T05:37:47.824Z,17.05
2019-06-08T05:40:29.225Z,19.27
2019-06-08T05:43:07.729Z,19.25
2019-06-08T05:45:48.359Z,23.18
2019-06-08T05:48:29.048Z,19.98
2019-06-08T05:51:10.145Z,21.00
2019-06-08T05:53:50.090Z,20.50
2019-06-08T05:56:28.557Z,20.37
2019-06-08T05:59:09.670Z,20.50
2019-06-08T06:01:48.969Z,19.60
2019-06-08T06:04:30.377Z,17.80
2019-06-08T06:07:10.082Z,19.23
2019-06-08T06:09:49.484Z,18.65
2019-06-08T06:12:28.857Z,17.00
2019-06-08T06:15:08.488Z,17.62
2019-06-08T06:17:49.803Z,16.55
2019-06-08T06:23:08.309Z,19.52
2019-06-08T06:25:47.550Z,17.15
2019-06-08T06:28:27.115Z,16.30
2019-06-08T06:31:08.720Z,16.45
2019-06-08T06:33:50.072Z,15.88
2019-06-08T06:36:30.581Z,15.98
2019-06-08T06:39:10.741Z,15.32
2019-06-08T06:41:52.175Z,14.38
2019-06-08T06:44:32.559Z,13.13
2019-06-08T06:47:11.650Z,13.05
2019-06-08T06:49:51.054Z,14.25
2019-06-08T06:52:31.162Z,13.10
2019-06-08T06:55:10.873Z,12.88
2019-06-08T06:57:51.534Z,13.77
2019-06-08T07:00:35.501Z,12.82
2019-06-08T07:03:16.083Z,12.25
2019-06-08T07:05:56.788Z,12.10
2019-06-08T07:11:15.416Z,15.65
2019-06-08T07:13:56.604Z,12.45
2019-06-08T07:16:36.902Z,11.22
2019-06-08T07:21:54.773Z,10.82
2019-06-08T07:24:35.737Z,10.23
2019-06-08T07:27:16.026Z,11.93
2019-06-08T07:29:56.327Z,10.60
2019-06-08T07:32:37.448Z,10.90
2019-06-08T07:35:17.751Z,9.50
2019-06-08T07:37:57.697Z,11.22
2019-06-08T07:40:38.347Z,10.78
2019-06-08T07:43:19.153Z,10.05
2019-06-08T07:46:00.159Z,11.60
2019-06-08T07:48:40.665Z,9.40
2019-06-08T07:51:20.181Z,9.33
2019-06-08T07:54:02.076Z,9.97
2019-06-08T07:56:44.283Z,9.33
2019-06-08T07:59:24.481Z,9.50
2019-06-08T08:04:44.192Z,9.38
2019-06-08T08:07:25.499Z,9.00
2019-06-08T08:10:06.865Z,8.98
2019-06-08T08:12:49.108Z,10.45
2019-06-08T08:15:28.712Z,9.63
2019-06-08T08:18:07.932Z,9.25
2019-06-08T08:20:49.471Z,11.03
2019-06-08T08:23:28.738Z,10.38
2019-06-08T08:26:08.342Z,10.43
2019-06-08T08:28:50.084Z,10.85
2019-06-08T08:31:28.040Z,10.45
2019-06-08T08:34:09.025Z,10.82
2019-06-08T08:36:51.118Z,10.10
2019-06-08T08:39:31.756Z,11.05
2019-06-08T08:42:13.565Z,10.45
2019-06-08T08:44:54.198Z,11.90
2019-06-08T08:50:12.775Z,12.33
2019-06-08T08:52:54.282Z,11.70
2019-06-08T08:55:35.088Z,10.72
2019-06-08T08:58:13.506Z,12.88
2019-06-08T09:00:55.304Z,11.75
2019-06-08T09:03:34.822Z,12.03
2019-06-08T09:06:15.203Z,12.07
2019-06-08T09:08:59.692Z,12.25
2019-06-08T09:11:41.125Z,11.30
2019-06-08T09:14:20.548Z,11.97
2019-06-08T09:17:02.159Z,12.15
2019-06-08T09:19:43.129Z,11.85
2019-06-08T09:22:24.638Z,12.50
2019-06-08T09:25:04.470Z,14.47
2019-06-08T09:27:48.159Z,13.50
2019-06-08T09:30:27.399Z,11.28
2019-06-08T09:33:08.258Z,11.70
2019-06-08T09:35:47.912Z,13.10
2019-06-08T09:38:25.290Z,11.75
2019-06-08T09:41:05.624Z,12.18
2019-06-08T09:43:48.576Z,11.75
2019-06-08T09:46:28.308Z,10.88
2019-06-08T09:49:09.379Z,10.72
2019-06-08T09:51:50.188Z,12.63
2019-06-08T09:54:31.796Z,12.23
2019-06-08T09:57:12.300Z,12.03
2019-06-08T09:59:56.087Z,12.23
2019-06-08T10:02:35.826Z,11.63
2019-06-08T10:05:15.012Z,11.57
2019-06-08T10:07:58.714Z,10.95
2019-06-08T10:10:36.564Z,10.70
2019-06-08T10:13:18.946Z,10.83
2019-06-08T10:16:03.274Z,10.93
2019-06-08T10:18:41.365Z,9.60
2019-06-08T10:24:02.799Z,8.97
2019-06-08T10:26:42.173Z,8.75
2019-06-08T10:29:22.355Z,9.53
2019-06-08T10:32:03.676Z,8.50
2019-06-08T10:34:44.369Z,9.13
2019-06-08T10:37:28.204Z,8.35
2019-06-08T10:40:07.429Z,8.23
2019-06-08T10:42:48.374Z,11.73
2019-06-08T10:45:28.601Z,9.75
2019-06-08T10:50:47.794Z,10.60
2019-06-08T10:53:29.755Z,9.93
2019-06-08T10:56:10.451Z,9.80
2019-06-08T11:01:30.514Z,12.03
2019-06-08T11:04:10.820Z,12.43
2019-06-08T11:06:50.361Z,11.18
2019-06-08T11:09:30.830Z,9.73
2019-06-08T11:14:48.648Z,10.15
2019-06-08T11:17:29.042Z,9.75
2019-06-08T11:20:11.827Z,9.20
2019-06-08T11:22:51.158Z,10.03
2019-06-08T11:25:31.571Z,9.35
2019-06-08T11:28:14.850Z,9.65
2019-06-08T11:30:53.165Z,9.40
2019-06-08T11:33:33.424Z,9.20
2019-06-08T11:38:50.686Z,9.58
2019-06-08T11:41:30.134Z,10.30
2019-06-08T11:44:11.912Z,10.53
2019-06-08T11:46:49.102Z,10.33
2019-06-08T11:49:29.400Z,9.77
2019-06-08T11:54:49.709Z,10.80
2019-06-08T11:57:29.515Z,10.25
2019-06-08T12:00:15.086Z,10.67
2019-06-08T12:02:52.027Z,10.20
2019-06-08T12:05:32.218Z,10.18
2019-06-08T12:08:12.650Z,12.43
2019-06-08T12:10:52.248Z,11.35
2019-06-08T12:13:30.645Z,11.60
2019-06-08T12:16:14.907Z,12.03
2019-06-08T12:18:50.659Z,10.60
2019-06-08T12:21:30.758Z,10.85
2019-06-08T12:24:10.390Z,11.08
2019-06-08T12:26:54.816Z,11.97
2019-06-08T12:29:41.774Z,11.33
2019-06-08T12:32:19.899Z,11.28
2019-06-08T12:35:00.076Z,11.30
2019-06-08T12:37:41.497Z,5.75
2019-06-08T12:40:20.939Z,5.40
2019-06-08T12:43:00.496Z,4.28
2019-06-08T12:45:41.103Z,4.55
2019-06-08T12:48:24.949Z,5.40
2019-06-08T12:51:04.112Z,6.03
2019-06-08T12:53:43.711Z,7.03
2019-06-08T12:56:24.321Z,6.50
2019-06-08T12:59:03.427Z,6.30
2019-06-08T13:01:43.830Z,7.35
2019-06-08T13:04:23.851Z,7.40
2019-06-08T13:07:05.543Z,7.28
2019-06-08T13:09:48.164Z,6.33
2019-06-08T13:12:24.365Z,6.92
2019-06-08T13:15:04.775Z,9.23
2019-06-08T13:17:44.167Z,8.88
2019-06-08T13:20:24.766Z,9.10
2019-06-08T13:23:08.229Z,6.33
2019-06-08T13:25:48.016Z,6.60
2019-06-08T13:28:28.515Z,6.42
2019-06-08T13:31:11.624Z,6.70
2019-06-08T13:33:50.483Z,7.42
2019-06-08T13:36:31.993Z,6.50
2019-06-08T13:39:13.135Z,6.37
2019-06-08T13:41:53.204Z,6.85
2019-06-08T13:44:34.415Z,5.42
2019-06-08T13:47:14.340Z,5.55
2019-06-08T13:49:53.529Z,5.05
2019-06-08T13:52:33.225Z,4.30
2019-06-08T13:55:34.353Z,4.92
2019-06-08T13:57:57.994Z,5.08
2019-06-08T14:00:41.546Z,3.90
2019-06-08T14:03:23.322Z,3.98
2019-06-08T14:06:07.503Z,3.77
2019-06-08T14:08:49.831Z,4.20
2019-06-08T14:11:29.763Z,3.47
2019-06-08T14:14:08.532Z,3.60
2019-06-08T14:16:50.620Z,4.28
2019-06-08T14:19:31.898Z,2.80
2019-06-08T14:22:19.799Z,3.33
2019-06-08T14:24:56.587Z,3.33
2019-06-08T14:27:37.509Z,3.10
2019-06-08T14:30:20.931Z,3.27
2019-06-08T14:33:01.295Z,2.95
2019-06-08T14:35:41.503Z,2.70
2019-06-08T14:38:25.668Z,3.30
2019-06-08T14:41:03.716Z,3.08
2019-06-08T14:43:43.217Z,3.10
2019-06-08T14:46:24.296Z,2.98
2019-06-08T14:49:04.155Z,3.22
2019-06-08T14:51:53.957Z,3.45
2019-06-08T14:54:35.067Z,3.22
2019-06-08T14:57:13.499Z,3.83
2019-06-08T15:00:00.208Z,3.08
2019-06-08T15:02:43.650Z,3.52
2019-06-08T15:05:23.342Z,3.17
2019-06-08T15:08:03.513Z,4.03
2019-06-08T15:10:43.870Z,6.12
2019-06-08T15:13:24.182Z,5.03
2019-06-08T15:16:03.976Z,5.58
2019-06-08T15:18:44.082Z,3.80
2019-06-08T15:21:29.751Z,4.72
2019-06-08T15:24:08.082Z,3.30
2019-06-08T15:26:49.415Z,2.62
2019-06-08T15:29:30.691Z,3.33
2019-06-08T15:32:09.914Z,3.67
2019-06-08T15:34:50.848Z,3.33
2019-06-08T15:37:30.786Z,3.45
2019-06-08T15:40:11.028Z,3.08
2019-06-08T15:42:50.914Z,3.50
2019-06-08T15:45:32.927Z,2.83
2019-06-08T15:48:12.538Z,3.10
2019-06-08T15:50:52.451Z,3.70
2019-06-08T15:53:33.007Z,2.85
2019-06-08T15:56:13.448Z,2.98
2019-06-08T15:58:52.766Z,3.55
2019-06-08T16:01:34.428Z,2.85
2019-06-08T16:04:13.509Z,3.90
2019-06-08T16:06:52.889Z,3.85
2019-06-08T16:09:32.203Z,3.58
2019-06-08T16:12:12.724Z,3.72
2019-06-08T16:14:52.480Z,4.83
2019-06-08T16:17:33.584Z,5.80
2019-06-08T16:20:14.161Z,3.90
2019-06-08T16:22:54.029Z,3.20
2019-06-08T16:25:38.363Z,3.70
2019-06-08T16:28:16.933Z,3.67
2019-06-08T16:30:57.328Z,3.60
2019-06-08T17:00:29.975Z,0.53
2019-06-08T17:07:43.381Z,0.37
2019-06-08T17:10:32.846Z,0.20
2019-06-08T17:13:17.493Z,1.00
2019-06-08T17:16:06.695Z,0.10
2019-06-08T17:19:03.503Z,0.20
2019-06-08T17:21:51.410Z,0.00
2019-06-08T17:24:39.018Z,0.08
2019-06-08T17:27:27.381Z,0.10
2019-06-08T17:30:20.227Z,0.37
2019-06-08T17:33:07.524Z,0.20
2019-06-08T17:35:55.830Z,0.00
2019-06-08T17:38:43.619Z,0.85
2019-06-08T17:41:31.929Z,0.08
2019-06-08T17:44:19.614Z,0.20
2019-06-08T17:47:09.143Z,0.47
2019-06-08T17:49:57.358Z,0.10
2019-06-08T17:52:45.206Z,0.10
2019-06-08T17:55:33.137Z,0.30
2019-06-08T17:58:21.586Z,0.10
2019-06-08T18:01:08.259Z,0.10
2019-06-08T18:03:53.881Z,0.42
2019-06-08T18:06:41.803Z,0.35
2019-06-08T18:09:30.205Z,0.72
2019-06-08T18:12:19.201Z,0.35
2019-06-08T18:15:07.487Z,0.68
2019-06-08T18:17:54.053Z,0.20
2019-06-08T18:20:42.043Z,0.20
2019-06-08T18:23:28.911Z,0.00
2019-06-08T18:26:17.251Z,0.13
2019-06-08T18:29:04.229Z,0.17
2019-06-08T18:31:51.939Z,0.50
2019-06-08T18:34:41.794Z,0.50
2019-06-08T18:37:28.590Z,0.23
2019-06-08T18:40:17.903Z,0.68
2019-06-08T18:43:07.478Z,0.23
2019-06-08T18:45:54.868Z,0.62
2019-06-08T18:48:44.563Z,0.10
2019-06-08T18:51:31.385Z,0.13
2019-06-08T18:54:19.282Z,0.10
2019-06-08T18:57:08.470Z,0.00
2019-06-08T18:59:53.799Z,0.10
2019-06-08T19:02:43.737Z,0.10
2019-06-08T19:05:29.275Z,0.62
2019-06-08T19:08:17.985Z,0.28
2019-06-08T19:11:04.508Z,0.40
2019-06-08T19:13:52.191Z,0.10
2019-06-08T19:16:42.811Z,0.20
2019-06-08T19:19:28.560Z,0.10
2019-06-08T19:22:13.624Z,0.47
2019-06-08T19:25:00.529Z,0.37
2019-06-08T19:27:51.820Z,0.45
2019-06-08T19:30:34.373Z,0.40
2019-06-08T19:33:29.446Z,0.10
2019-06-08T19:36:17.202Z,0.57
2019-06-08T19:39:24.654Z,0.15
2019-06-08T19:42:33.193Z,0.40
2019-06-08T19:45:11.770Z,0.43
2019-06-08T19:47:58.328Z,0.40
2019-06-08T19:50:47.290Z,0.40
2019-06-08T19:53:32.179Z,0.50
2019-06-08T19:56:21.056Z,0.40
2019-06-08T19:59:08.333Z,0.95
2019-06-08T20:01:56.502Z,0.93
2019-06-08T20:04:47.169Z,0.05
2019-06-08T20:07:41.508Z,0.60
2019-06-08T20:10:27.942Z,0.78
2019-06-08T20:13:14.503Z,0.33
2019-06-08T20:16:04.606Z,0.20
2019-06-08T20:18:52.920Z,0.10
2019-06-08T20:21:40.890Z,0.10
2019-06-08T20:24:28.314Z,0.42
2019-06-08T20:27:17.105Z,0.20
2019-06-08T20:30:08.717Z,0.65
2019-06-08T20:32:54.431Z,0.90
2019-06-08T20:35:41.629Z,0.20
2019-06-08T20:38:37.696Z,0.42
2019-06-08T20:41:41.696Z,0.20
2019-06-08T20:44:53.181Z,0.10
2019-06-08T20:47:58.224Z,0.45
2019-06-08T20:50:48.814Z,0.10
2019-06-08T20:53:48.828Z,0.57
2019-06-08T20:56:27.905Z,0.90
2019-06-08T20:59:24.278Z,0.37
2019-06-08T21:02:00.209Z,0.37
2019-06-08T21:04:49.130Z,2.20
2019-06-08T21:07:35.725Z,0.33
2019-06-08T21:10:24.271Z,0.40
2019-06-08T21:13:09.934Z,0.68
2019-06-08T21:16:00.233Z,0.47
2019-06-08T21:18:46.794Z,1.15
2019-06-08T21:21:34.946Z,0.75
2019-06-08T21:24:22.048Z,0.55
2019-06-08T21:27:08.457Z,1.75
2019-06-08T21:30:02.081Z,0.42
2019-06-08T21:32:44.369Z,1.32
2019-06-08T21:35:31.270Z,1.05
2019-06-08T21:38:23.830Z,0.15
2019-06-08T21:41:08.299Z,0.50
2019-06-08T21:43:56.786Z,0.75
2019-06-08T21:46:42.854Z,0.30
2019-06-08T21:49:30.801Z,1.07
2019-06-08T21:52:18.200Z,0.10
2019-06-08T21:55:04.307Z,0.40
2019-06-08T21:57:53.710Z,0.75
2019-06-08T22:00:43.550Z,0.35
2019-06-08T22:06:17.747Z,0.55
2019-06-08T22:09:06.913Z,0.20
2019-06-08T22:11:52.608Z,0.70
2019-06-08T22:14:40.647Z,0.30
2019-06-08T22:17:27.716Z,1.12
2019-06-08T22:20:14.751Z,0.82
2019-06-08T22:23:01.025Z,0.78
2019-06-08T22:25:48.062Z,0.68
2019-06-08T22:28:34.773Z,0.13
2019-06-08T22:31:23.202Z,0.20
2019-06-08T22:34:12.075Z,0.93
2019-06-08T22:37:00.556Z,1.12
2019-06-08T22:39:47.910Z,1.17
2019-06-08T22:42:37.257Z,0.33
2019-06-08T22:45:23.236Z,0.45
2019-06-08T22:48:10.815Z,0.90
2019-06-08T22:50:59.839Z,0.50
2019-06-08T22:53:47.681Z,0.45
2019-06-08T22:56:34.326Z,1.47
2019-06-08T22:59:22.223Z,0.88
2019-06-08T23:02:09.528Z,0.90
2019-06-08T23:04:59.520Z,0.55
2019-06-08T23:07:44.249Z,0.65
2019-06-08T23:10:32.243Z,0.20
2019-06-08T23:13:19.751Z,0.28
2019-06-08T23:16:08.096Z,0.65
2019-06-08T23:18:57.276Z,1.40
2019-06-08T23:21:44.465Z,0.98
2019-06-08T23:24:30.775Z,2.20
2019-06-08T23:27:18.076Z,0.80
2019-06-08T23:30:09.576Z,0.37
2019-06-08T23:32:54.488Z,0.50
2019-06-08T23:36:20.709Z,0.50
2019-06-08T23:38:29.693Z,0.05
2019-06-08T23:41:17.686Z,0.28
2019-06-08T23:44:05.612Z,0.50
2019-06-08T23:46:51.911Z,0.25
2019-06-08T23:49:38.922Z,0.65
2019-06-08T23:52:27.250Z,0.10
2019-06-08T23:55:14.533Z,0.57
2019-06-08T23:58:02.921Z,0.40
